createdAt,value
2022-10-07T00:01:00.768Z,4.60
2022-10-07T00:03:51.855Z,4.57
2022-10-07T00:06:40.865Z,4.17
2022-10-07T00:09:31.286Z,3.70
2022-10-07T00:12:21.029Z,3.70
2022-10-07T00:15:10.506Z,4.60
2022-10-07T00:17:59.506Z,3.70
2022-10-07T00:20:48.746Z,3.47
2022-10-07T00:23:37.888Z,5.20
2022-10-07T00:26:29.484Z,3.93
2022-10-07T00:29:18.452Z,3.87
2022-10-07T00:32:07.421Z,4.07
2022-10-07T00:34:56.394Z,3.97
2022-10-07T00:37:45.474Z,3.77
2022-10-07T00:40:34.614Z,4.43
2022-10-07T00:43:26.283Z,3.80
2022-10-07T00:46:17.651Z,3.63
2022-10-07T00:49:08.150Z,3.97
2022-10-07T00:51:56.996Z,4.60
2022-10-07T00:54:45.950Z,5.43
2022-10-07T00:57:35.371Z,4.50
2022-10-07T01:00:25.657Z,4.23
2022-10-07T01:03:15.103Z,4.23
2022-10-07T01:06:04.464Z,4.17
2022-10-07T01:08:54.886Z,5.00
2022-10-07T01:11:48.489Z,4.93
2022-10-07T01:14:44.298Z,5.50
2022-10-07T01:17:37.283Z,4.77
2022-10-07T01:20:29.832Z,5.33
2022-10-07T01:23:27.719Z,5.10
2022-10-07T01:26:37.661Z,4.77
2022-10-07T01:29:30.578Z,5.37
2022-10-07T01:32:20.799Z,5.90
2022-10-07T01:35:11.763Z,4.43
2022-10-07T01:38:03.188Z,4.00
2022-10-07T01:40:54.249Z,4.30
2022-10-07T01:43:43.243Z,4.40
2022-10-07T01:46:37.647Z,4.57
2022-10-07T01:49:26.794Z,3.83
2022-10-07T01:52:19.834Z,4.10
2022-10-07T01:55:15.291Z,4.20
2022-10-07T01:58:08.767Z,4.07
2022-10-07T02:01:01.061Z,4.57
2022-10-07T02:04:08.954Z,3.67
2022-10-07T02:07:01.136Z,5.50
2022-10-07T02:09:53.339Z,4.33
2022-10-07T02:12:44.233Z,3.70
2022-10-07T02:15:34.987Z,4.63
2022-10-07T02:18:24.380Z,3.90
2022-10-07T02:21:14.675Z,3.67
2022-10-07T02:24:03.891Z,3.30
2022-10-07T02:26:54.758Z,3.90
2022-10-07T02:29:45.434Z,3.73
2022-10-07T02:32:35.770Z,3.70
2022-10-07T02:35:27.512Z,4.13
2022-10-07T02:38:18.609Z,3.70
2022-10-07T02:41:09.006Z,3.80
2022-10-07T02:43:59.957Z,4.70
2022-10-07T02:46:50.983Z,5.23
2022-10-07T02:49:41.887Z,4.40
2022-10-07T02:52:32.493Z,3.90
2022-10-07T02:55:24.563Z,4.00
2022-10-07T02:58:14.994Z,3.40
2022-10-07T03:01:04.159Z,3.70
2022-10-07T03:03:53.066Z,3.63
2022-10-07T03:06:42.892Z,3.10
2022-10-07T03:09:32.626Z,3.30
2022-10-07T03:12:22.841Z,3.40
2022-10-07T03:15:12.069Z,4.10
2022-10-07T03:18:00.921Z,3.80
2022-10-07T03:20:53.348Z,3.47
2022-10-07T03:23:42.493Z,3.57
2022-10-07T03:26:31.381Z,3.73
2022-10-07T03:29:21.580Z,4.10
2022-10-07T03:32:10.939Z,3.27
2022-10-07T03:34:59.749Z,3.00
2022-10-07T03:37:48.591Z,3.13
2022-10-07T03:40:37.442Z,3.33
2022-10-07T03:43:26.380Z,3.70
2022-10-07T03:46:17.310Z,3.80
2022-10-07T03:49:06.291Z,4.00
2022-10-07T03:51:55.121Z,3.23
2022-10-07T03:54:44.042Z,3.27
2022-10-07T03:57:54.417Z,3.27
2022-10-07T04:00:45.877Z,3.37
2022-10-07T04:03:36.071Z,3.00
2022-10-07T04:06:25.197Z,3.63
2022-10-07T04:09:14.565Z,3.73
2022-10-07T04:12:03.678Z,3.50
2022-10-07T04:14:52.500Z,3.60
2022-10-07T04:17:41.430Z,3.13
2022-10-07T04:20:31.638Z,2.80
2022-10-07T04:23:20.441Z,3.30
2022-10-07T04:26:10.178Z,3.83
2022-10-07T04:29:00.047Z,3.77
2022-10-07T04:31:49.030Z,3.60
2022-10-07T04:34:37.877Z,4.10
2022-10-07T04:37:28.098Z,3.10
2022-10-07T04:40:17.073Z,5.00
2022-10-07T04:43:22.741Z,4.57
2022-10-07T04:46:13.578Z,4.60
2022-10-07T04:49:02.386Z,4.70
2022-10-07T04:51:51.606Z,4.77
2022-10-07T04:54:41.927Z,4.93
2022-10-07T04:57:30.752Z,4.63
2022-10-07T05:00:19.738Z,4.67
2022-10-07T05:03:08.620Z,4.53
2022-10-07T05:06:04.603Z,4.13
2022-10-07T05:08:54.370Z,4.33
2022-10-07T05:11:44.581Z,3.70
2022-10-07T05:14:33.696Z,3.73
2022-10-07T05:17:22.661Z,3.67
2022-10-07T05:20:12.320Z,4.50
2022-10-07T05:23:01.179Z,4.30
2022-10-07T05:25:58.026Z,4.00
2022-10-07T05:28:49.356Z,3.87
2022-10-07T05:31:38.305Z,3.80
2022-10-07T05:34:27.183Z,4.30
2022-10-07T05:37:16.068Z,4.20
2022-10-07T05:40:05.078Z,3.70
2022-10-07T05:42:53.959Z,3.10
2022-10-07T05:45:44.214Z,3.90
2022-10-07T05:48:38.726Z,3.53
2022-10-07T05:51:28.256Z,5.27
2022-10-07T05:54:17.053Z,4.77
2022-10-07T05:57:05.978Z,5.27
2022-10-07T05:59:56.440Z,4.50
2022-10-07T06:02:47.139Z,4.50
2022-10-07T06:05:36.082Z,4.50
2022-10-07T06:08:25.343Z,4.40
2022-10-07T06:11:32.892Z,5.30
2022-10-07T06:14:21.750Z,4.47
2022-10-07T06:17:10.558Z,4.17
2022-10-07T06:20:00.702Z,4.60
2022-10-07T06:22:49.546Z,5.33
2022-10-07T06:25:38.365Z,4.57
2022-10-07T06:28:32.001Z,4.47
2022-10-07T06:31:22.506Z,4.20
2022-10-07T06:34:11.485Z,4.47
2022-10-07T06:37:01.624Z,3.90
2022-10-07T06:39:50.422Z,4.00
2022-10-07T06:42:39.240Z,5.00
2022-10-07T06:45:28.117Z,4.80
2022-10-07T06:48:16.965Z,4.47
2022-10-07T06:51:06.075Z,4.90
2022-10-07T06:53:57.932Z,5.47
2022-10-07T06:56:46.798Z,5.37
2022-10-07T06:59:35.626Z,5.50
2022-10-07T07:02:25.470Z,5.17
2022-10-07T07:05:15.695Z,5.37
2022-10-07T07:08:04.812Z,3.93
2022-10-07T07:10:55.121Z,4.40
2022-10-07T07:13:46.023Z,2.47
2022-10-07T07:16:35.517Z,2.77
2022-10-07T07:19:24.413Z,2.63
2022-10-07T07:22:13.475Z,2.80
2022-10-07T07:25:02.278Z,2.60
2022-10-07T07:27:57.567Z,3.03
2022-10-07T07:30:48.691Z,2.60
2022-10-07T07:33:38.358Z,2.47
2022-10-07T07:36:27.320Z,2.50
2022-10-07T07:39:18.163Z,3.13
2022-10-07T07:42:07.029Z,2.30
2022-10-07T07:45:01.232Z,3.00
2022-10-07T07:47:50.471Z,3.03
2022-10-07T07:50:41.166Z,2.07
2022-10-07T07:53:30.098Z,2.50
2022-10-07T07:56:19.273Z,3.37
2022-10-07T07:59:09.095Z,2.67
2022-10-07T08:01:59.347Z,2.80
2022-10-07T08:04:48.184Z,2.97
2022-10-07T08:07:38.426Z,2.53
2022-10-07T08:10:27.278Z,2.67
2022-10-07T08:13:16.166Z,2.17
2022-10-07T08:16:05.214Z,2.47
2022-10-07T08:18:56.003Z,2.42
2022-10-07T08:21:44.934Z,2.25
2022-10-07T08:24:33.737Z,2.92
2022-10-07T08:27:22.551Z,2.05
2022-10-07T08:30:11.864Z,1.73
2022-10-07T08:33:01.611Z,2.38
2022-10-07T08:35:52.506Z,1.67
2022-10-07T08:38:42.279Z,2.08
2022-10-07T08:41:45.783Z,1.95
2022-10-07T08:44:36.007Z,2.10
2022-10-07T08:47:27.862Z,1.98
2022-10-07T08:50:19.762Z,2.03
2022-10-07T08:53:15.093Z,2.10
2022-10-07T08:56:09.644Z,2.15
2022-10-07T08:59:12.804Z,2.25
2022-10-07T09:02:06.080Z,2.10
2022-10-07T09:04:58.579Z,2.58
2022-10-07T09:07:49.651Z,2.00
2022-10-07T09:10:41.223Z,2.10
2022-10-07T09:13:31.211Z,2.00
2022-10-07T09:16:22.595Z,2.35
2022-10-07T09:19:15.072Z,1.75
2022-10-07T09:22:07.025Z,1.65
2022-10-07T09:24:58.931Z,1.83
2022-10-07T09:27:51.329Z,2.15
2022-10-07T09:30:40.750Z,2.08
2022-10-07T09:33:30.073Z,1.77
2022-10-07T09:36:19.857Z,2.20
2022-10-07T09:39:17.417Z,2.85
2022-10-07T09:42:07.886Z,2.33
2022-10-07T09:44:59.663Z,2.55
2022-10-07T09:47:52.516Z,2.03
2022-10-07T09:50:42.553Z,1.80
2022-10-07T09:53:32.972Z,2.03
2022-10-07T09:56:32.334Z,1.85
2022-10-07T09:59:22.547Z,1.92
2022-10-07T10:02:20.047Z,2.70
2022-10-07T10:05:20.517Z,1.33
2022-10-07T10:08:21.025Z,2.40
2022-10-07T10:11:28.112Z,1.77
2022-10-07T10:14:29.235Z,1.90
2022-10-07T10:17:28.297Z,2.25
2022-10-07T10:20:26.921Z,1.77
2022-10-07T10:23:25.989Z,1.85
2022-10-07T10:26:33.407Z,1.98
2022-10-07T10:29:30.532Z,1.45
2022-10-07T10:32:37.685Z,1.65
2022-10-07T10:35:27.956Z,5.93
2022-10-07T10:38:27.241Z,2.10
2022-10-07T10:41:21.123Z,1.83
2022-10-07T10:44:20.442Z,2.00
2022-10-07T10:47:15.641Z,2.10
2022-10-07T10:50:13.144Z,2.30
2022-10-07T10:53:06.090Z,1.73
2022-10-07T10:56:08.367Z,1.77
2022-10-07T10:59:08.703Z,2.20
2022-10-07T11:02:01.685Z,2.08
2022-10-07T11:04:52.261Z,1.83
2022-10-07T11:07:44.208Z,1.73
2022-10-07T11:10:36.333Z,2.05
2022-10-07T11:13:28.266Z,2.22
2022-10-07T11:16:18.619Z,1.80
2022-10-07T11:19:10.776Z,2.03
2022-10-07T11:22:00.832Z,2.13
2022-10-07T11:24:54.779Z,2.25
2022-10-07T11:27:45.174Z,1.83
2022-10-07T11:30:38.074Z,2.38
2022-10-07T11:33:32.086Z,2.17
2022-10-07T11:36:23.498Z,2.28
2022-10-07T11:39:12.553Z,2.47
2022-10-07T11:42:05.559Z,2.72
2022-10-07T11:44:57.999Z,2.05
2022-10-07T11:47:50.334Z,2.47
2022-10-07T11:50:41.232Z,2.47
2022-10-07T11:53:33.502Z,2.08
2022-10-07T11:56:24.444Z,1.90
2022-10-07T11:59:31.631Z,2.45
2022-10-07T12:02:53.363Z,1.90
2022-10-07T12:05:57.546Z,2.10
2022-10-07T12:08:46.490Z,2.55
2022-10-07T12:11:41.922Z,1.90
2022-10-07T12:14:44.482Z,2.10
2022-10-07T12:17:33.330Z,3.03
2022-10-07T12:20:42.918Z,1.67
2022-10-07T12:23:39.381Z,2.25
2022-10-07T12:26:50.237Z,2.20
2022-10-07T12:29:58.454Z,1.88
2022-10-07T12:32:49.137Z,2.10
2022-10-07T12:35:41.564Z,2.33
2022-10-07T12:38:30.987Z,1.80
2022-10-07T12:41:24.900Z,2.38
2022-10-07T12:44:17.855Z,2.20
2022-10-07T12:47:17.681Z,2.08
2022-10-07T12:50:09.595Z,1.90
2022-10-07T12:52:58.718Z,2.30
2022-10-07T12:55:49.857Z,1.92
2022-10-07T12:59:08.386Z,1.90
2022-10-07T13:02:08.736Z,2.30
2022-10-07T13:05:20.075Z,2.45
2022-10-07T13:08:42.045Z,1.83
2022-10-07T13:11:49.752Z,2.45
2022-10-07T13:14:40.998Z,2.30
2022-10-07T13:17:36.194Z,2.33
2022-10-07T13:20:40.852Z,2.50
2022-10-07T13:23:32.140Z,2.30
2022-10-07T13:26:22.526Z,2.45
2022-10-07T13:29:19.872Z,2.70
2022-10-07T13:32:14.951Z,1.95
2022-10-07T13:35:25.781Z,2.38
2022-10-07T13:38:27.344Z,2.25
2022-10-07T13:41:21.616Z,2.50
2022-10-07T13:44:13.676Z,2.88
2022-10-07T13:47:03.741Z,2.67
2022-10-07T13:49:54.979Z,2.17
2022-10-07T13:52:46.995Z,2.47
2022-10-07T13:55:37.048Z,3.03
2022-10-07T13:58:32.678Z,2.80
2022-10-07T14:01:22.026Z,1.60
2022-10-07T14:04:12.906Z,2.08
2022-10-07T14:07:02.672Z,2.05
2022-10-07T14:09:52.272Z,2.40
2022-10-07T14:12:43.066Z,2.47
2022-10-07T14:15:35.297Z,2.28
2022-10-07T14:18:24.330Z,3.00
2022-10-07T14:21:16.907Z,2.45
2022-10-07T14:24:09.690Z,2.60
2022-10-07T14:26:58.998Z,2.60
2022-10-07T14:29:48.109Z,2.25
2022-10-07T14:32:55.922Z,2.47
2022-10-07T14:35:45.454Z,2.28
2022-10-07T14:38:34.342Z,1.73
2022-10-07T14:41:24.426Z,2.45
2022-10-07T14:44:13.296Z,2.75
2022-10-07T14:47:06.057Z,2.38
2022-10-07T14:49:57.172Z,2.03
2022-10-07T14:52:47.727Z,1.83
2022-10-07T14:55:36.837Z,2.15
2022-10-07T14:58:25.676Z,2.03
2022-10-07T15:01:14.520Z,2.05
2022-10-07T15:04:03.573Z,2.13
2022-10-07T15:06:54.071Z,1.60
2022-10-07T15:09:43.277Z,2.03
2022-10-07T15:12:33.106Z,2.13
2022-10-07T15:15:21.918Z,1.57
2022-10-07T15:18:11.560Z,1.70
2022-10-07T15:21:00.420Z,1.77
2022-10-07T15:23:52.899Z,1.60
2022-10-07T15:26:41.908Z,2.00
2022-10-07T15:29:31.005Z,1.97
2022-10-07T15:32:19.834Z,1.70
2022-10-07T15:35:09.392Z,1.73
2022-10-07T15:37:58.344Z,1.83
2022-10-07T15:40:54.713Z,2.00
2022-10-07T15:43:43.535Z,2.70
2022-10-07T15:46:32.480Z,1.57
2022-10-07T15:49:22.241Z,1.90
2022-10-07T15:52:11.526Z,1.47
2022-10-07T15:55:06.644Z,2.00
2022-10-07T15:57:58.890Z,1.70
2022-10-07T16:00:57.698Z,1.50
2022-10-07T16:03:48.033Z,1.80
2022-10-07T16:06:37.176Z,1.37
2022-10-07T16:09:26.024Z,2.20
2022-10-07T16:12:14.839Z,1.40
2022-10-07T16:15:06.350Z,1.40
2022-10-07T16:17:55.161Z,2.70
2022-10-07T16:20:43.980Z,1.70
2022-10-07T16:23:33.063Z,1.70
2022-10-07T16:26:22.577Z,1.50
2022-10-07T16:29:32.485Z,1.80
2022-10-07T16:32:22.676Z,2.50
2022-10-07T16:35:11.509Z,1.93
2022-10-07T16:38:00.387Z,2.80
2022-10-07T16:40:55.554Z,2.83
2022-10-07T16:43:44.532Z,2.50
2022-10-07T16:46:34.107Z,3.33
2022-10-07T16:49:25.730Z,2.77
2022-10-07T16:52:14.639Z,2.33
2022-10-07T16:55:03.514Z,2.20
2022-10-07T16:57:53.024Z,2.67
2022-10-07T17:00:42.101Z,2.60
2022-10-07T17:03:31.388Z,3.30
2022-10-07T17:06:22.684Z,2.93
2022-10-07T17:09:11.525Z,3.60
2022-10-07T17:12:00.382Z,3.63
2022-10-07T17:14:49.190Z,3.57
2022-10-07T17:17:38.039Z,3.20
2022-10-07T17:20:26.948Z,3.80
2022-10-07T17:23:17.149Z,4.17
2022-10-07T17:26:07.624Z,3.53
2022-10-07T17:29:00.648Z,4.27
2022-10-07T17:31:50.660Z,3.27
2022-10-07T17:34:43.220Z,3.60
2022-10-07T17:37:34.255Z,4.10
2022-10-07T17:40:24.756Z,4.03
2022-10-07T17:43:13.766Z,4.27
2022-10-07T17:46:02.617Z,4.27
2022-10-07T17:48:52.911Z,5.30
2022-10-07T17:51:43.087Z,4.33
2022-10-07T17:54:32.074Z,4.53
2022-10-07T17:57:22.263Z,5.33
2022-10-07T18:00:11.448Z,6.77
2022-10-07T18:03:00.977Z,6.27
2022-10-07T18:05:52.963Z,6.40
2022-10-07T18:08:42.457Z,5.70
2022-10-07T18:11:45.331Z,6.00
2022-10-07T18:14:54.310Z,5.30
2022-10-07T18:17:44.505Z,4.70
2022-10-07T18:20:33.633Z,5.10
2022-10-07T18:23:22.481Z,5.37
2022-10-07T18:26:13.437Z,5.40
2022-10-07T18:29:02.339Z,4.50
2022-10-07T18:31:52.685Z,4.90
2022-10-07T18:34:41.539Z,4.30
2022-10-07T18:37:30.813Z,5.17
2022-10-07T18:40:19.798Z,4.90
2022-10-07T18:43:08.633Z,4.63
2022-10-07T18:46:01.486Z,4.90
2022-10-07T18:48:52.042Z,5.30
2022-10-07T18:51:41.154Z,4.37
2022-10-07T18:54:29.958Z,5.47
2022-10-07T18:57:19.590Z,6.10
2022-10-07T19:00:09.048Z,5.27
2022-10-07T19:02:57.900Z,5.83
2022-10-07T19:05:48.087Z,5.00
2022-10-07T19:08:36.953Z,5.97
2022-10-07T19:11:25.784Z,6.50
2022-10-07T19:14:13.873Z,5.80
2022-10-07T19:17:02.791Z,6.40
2022-10-07T19:19:51.899Z,5.93
2022-10-07T19:22:42.114Z,5.90
2022-10-07T19:25:49.050Z,6.80
2022-10-07T19:28:39.123Z,7.30
2022-10-07T19:31:29.198Z,6.50
2022-10-07T19:34:19.701Z,6.57
2022-10-07T19:37:08.499Z,6.33
2022-10-07T19:39:58.610Z,5.90
2022-10-07T19:42:47.458Z,7.23
2022-10-07T19:45:36.395Z,6.30
2022-10-07T19:48:25.759Z,7.30
2022-10-07T19:51:15.764Z,7.67
2022-10-07T19:54:05.634Z,7.30
2022-10-07T19:56:55.878Z,7.00
2022-10-07T19:59:45.577Z,8.40
2022-10-07T20:02:34.552Z,9.70
2022-10-07T20:05:24.163Z,9.80
2022-10-07T20:08:14.421Z,10.73
2022-10-07T20:11:03.752Z,9.77
2022-10-07T20:13:54.442Z,14.43
2022-10-07T20:16:44.039Z,12.57
2022-10-07T20:19:32.901Z,12.50
2022-10-07T20:22:21.730Z,12.27
2022-10-07T20:25:11.006Z,11.07
2022-10-07T20:27:59.875Z,9.70
2022-10-07T20:30:50.161Z,9.57
2022-10-07T20:33:39.961Z,9.43
2022-10-07T20:36:30.172Z,9.73
2022-10-07T20:39:37.269Z,9.20
2022-10-07T20:42:28.711Z,8.23
2022-10-07T20:45:17.579Z,9.53
2022-10-07T20:48:07.766Z,10.20
2022-10-07T20:50:56.769Z,9.20
2022-10-07T20:53:49.784Z,9.57
2022-10-07T20:56:38.603Z,9.33
2022-10-07T20:59:27.483Z,8.93
2022-10-07T21:02:17.231Z,8.87
2022-10-07T21:05:08.109Z,9.00
2022-10-07T21:07:57.021Z,11.00
2022-10-07T21:10:45.843Z,9.23
2022-10-07T21:13:34.706Z,8.33
2022-10-07T21:16:24.070Z,8.10
2022-10-07T21:19:12.941Z,8.50
2022-10-07T21:22:03.391Z,8.23
2022-10-07T21:24:52.222Z,7.63
2022-10-07T21:27:41.356Z,6.57
2022-10-07T21:30:32.859Z,6.10
2022-10-07T21:33:21.795Z,6.07
2022-10-07T21:36:15.748Z,6.57
2022-10-07T21:39:06.767Z,5.33
2022-10-07T21:41:57.850Z,5.93
2022-10-07T21:44:47.059Z,5.50
2022-10-07T21:47:35.880Z,4.70
2022-10-07T21:50:24.706Z,5.27
2022-10-07T21:53:13.978Z,5.90
2022-10-07T21:56:05.467Z,4.73
2022-10-07T21:58:54.613Z,5.03
2022-10-07T22:01:43.562Z,5.30
2022-10-07T22:04:32.527Z,5.73
2022-10-07T22:07:39.522Z,4.60
2022-10-07T22:10:28.495Z,4.73
2022-10-07T22:13:18.661Z,4.77
2022-10-07T22:16:08.663Z,4.60
2022-10-07T22:18:57.536Z,4.77
2022-10-07T22:21:46.739Z,4.40
2022-10-07T22:24:35.650Z,4.93
2022-10-07T22:27:25.110Z,4.97
2022-10-07T22:30:15.552Z,4.43
2022-10-07T22:33:04.367Z,5.07
2022-10-07T22:35:53.193Z,4.87
2022-10-07T22:38:42.963Z,4.67
2022-10-07T22:41:32.256Z,4.47
2022-10-07T22:44:21.117Z,4.30
2022-10-07T22:47:11.283Z,5.90
2022-10-07T22:50:00.205Z,4.80
2022-10-07T22:52:49.389Z,4.53
2022-10-07T22:55:38.449Z,4.30
2022-10-07T22:58:27.258Z,4.70
2022-10-07T23:01:17.124Z,3.87
2022-10-07T23:04:07.296Z,5.10
2022-10-07T23:06:56.120Z,5.70
2022-10-07T23:09:45.012Z,4.33
2022-10-07T23:12:33.864Z,4.43
2022-10-07T23:15:22.686Z,4.37
2022-10-07T23:18:11.531Z,4.50
2022-10-07T23:21:02.476Z,4.20
2022-10-07T23:23:52.769Z,5.90
2022-10-07T23:26:41.635Z,4.30
2022-10-07T23:29:32.670Z,5.03
2022-10-07T23:32:21.485Z,4.87
2022-10-07T23:35:11.646Z,4.20
2022-10-07T23:38:01.859Z,4.30
2022-10-07T23:40:50.711Z,3.97
2022-10-07T23:43:39.526Z,4.43
2022-10-07T23:46:28.842Z,4.77
2022-10-07T23:49:17.809Z,4.70
2022-10-07T23:52:06.621Z,4.13
2022-10-07T23:54:56.745Z,4.50
2022-10-07T23:57:45.590Z,4.57
